createdAt,value
2022-10-28T00:03:49.486Z,98238.41
2022-10-28T00:08:52.291Z,98239.19
2022-10-28T00:13:56.592Z,98224.41
2022-10-28T00:19:00.485Z,98224.22
2022-10-28T00:24:03.377Z,98221.69
2022-10-28T00:29:09.605Z,98228.84
2022-10-28T00:34:14.644Z,98230.97
2022-10-28T00:39:19.236Z,98229.47
2022-10-28T00:44:53.266Z,98232.19
2022-10-28T00:50:02.367Z,98220.28
2022-10-28T00:55:05.895Z,98241.59
2022-10-28T01:00:11.467Z,98233.91
2022-10-28T01:05:17.266Z,98237.19
2022-10-28T01:10:23.391Z,98225.09
2022-10-28T01:15:34.805Z,98231.06
2022-10-28T01:21:12.832Z,98233.75
2022-10-28T01:26:49.455Z,98223.16
2022-10-28T01:31:55.905Z,98223.25
2022-10-28T01:37:06.755Z,98223.25
2022-10-28T01:42:17.500Z,98232.59
2022-10-28T01:47:26.946Z,98229.25
2022-10-28T01:52:32.989Z,98235.88
2022-10-28T01:57:39.474Z,98223.31
2022-10-28T02:02:44.674Z,98236.28
2022-10-28T02:07:48.432Z,98234.22
2022-10-28T02:12:56.059Z,98230.03
2022-10-28T02:18:13.980Z,98220.16
2022-10-28T02:23:28.000Z,98230.03
2022-10-28T02:28:40.365Z,98216.63
2022-10-28T02:33:48.856Z,98210.13
2022-10-28T02:38:55.483Z,98215.81
2022-10-28T02:44:02.623Z,98220.56
2022-10-28T02:49:09.897Z,98213.00
2022-10-28T02:54:15.754Z,98206.69
2022-10-28T02:59:18.544Z,98217.22
2022-10-28T03:04:22.835Z,98206.53
2022-10-28T03:09:25.503Z,98201.94
2022-10-28T03:14:27.982Z,98216.47
2022-10-28T03:19:32.028Z,98218.31
2022-10-28T03:24:34.657Z,98217.50
2022-10-28T03:29:39.892Z,98198.78
2022-10-28T03:34:47.344Z,98208.66
2022-10-28T03:39:50.024Z,98192.72
2022-10-28T03:44:52.820Z,98204.53
2022-10-28T03:49:56.853Z,98215.84
2022-10-28T03:54:59.545Z,98207.31
2022-10-28T04:00:02.477Z,98210.41
2022-10-28T04:05:07.246Z,98206.13
2022-10-28T04:10:10.663Z,98208.25
2022-10-28T04:15:13.342Z,98200.66
2022-10-28T04:20:17.494Z,98210.91
2022-10-28T04:25:20.171Z,98209.06
2022-10-28T04:30:22.944Z,98218.44
2022-10-28T04:35:27.457Z,98205.84
2022-10-28T04:40:30.294Z,98201.81
2022-10-28T04:45:33.269Z,98197.63
2022-10-28T04:50:37.483Z,98197.44
2022-10-28T04:55:40.320Z,98194.75
2022-10-28T05:00:57.855Z,98198.78
2022-10-28T05:03:02.677Z,98205.22
2022-10-28T05:05:05.939Z,98196.47
2022-10-28T05:07:09.365Z,98196.91
2022-10-28T05:09:12.094Z,98206.72
2022-10-28T05:11:14.733Z,98206.72
2022-10-28T05:13:17.546Z,98203.38
2022-10-28T05:15:20.235Z,98215.19
2022-10-28T05:17:24.385Z,98219.50
2022-10-28T05:19:27.017Z,98215.13
2022-10-28T05:21:29.648Z,98227.34
2022-10-28T05:23:32.328Z,98233.75
2022-10-28T05:25:34.981Z,98225.59
2022-10-28T05:27:37.624Z,98216.44
2022-10-28T05:29:40.290Z,98222.84
2022-10-28T05:31:42.927Z,98223.00
2022-10-28T05:33:46.922Z,98217.69
2022-10-28T05:35:49.872Z,98216.25
2022-10-28T05:37:52.496Z,98219.59
2022-10-28T05:39:55.175Z,98217.78
2022-10-28T05:41:57.802Z,98230.22
2022-10-28T05:44:00.446Z,98216.13
2022-10-28T05:46:03.887Z,98217.81
2022-10-28T05:48:07.094Z,98210.94
2022-10-28T05:50:11.585Z,98201.88
2022-10-28T05:52:14.239Z,98203.41
2022-10-28T05:54:16.856Z,98209.88
2022-10-28T05:56:19.527Z,98207.81
2022-10-28T05:58:22.167Z,98206.97
2022-10-28T06:00:26.830Z,98203.09
2022-10-28T06:02:29.566Z,98210.06
2022-10-28T06:04:33.362Z,98219.91
2022-10-28T06:06:37.376Z,98227.19
2022-10-28T06:08:42.768Z,98228.28
2022-10-28T06:10:56.585Z,98234.97
2022-10-28T06:12:59.417Z,98243.72
2022-10-28T06:15:02.925Z,98234.13
2022-10-28T06:17:05.791Z,98238.50
2022-10-28T06:19:08.495Z,98233.28
2022-10-28T06:21:11.147Z,98232.00
2022-10-28T06:23:15.163Z,98239.53
2022-10-28T06:25:19.408Z,98232.69
2022-10-28T06:27:22.069Z,98225.56
2022-10-28T06:29:25.283Z,98226.09
2022-10-28T06:31:31.892Z,98238.56
2022-10-28T06:33:35.077Z,98234.19
2022-10-28T06:35:37.713Z,98226.66
2022-10-28T06:37:40.576Z,98227.38
2022-10-28T06:39:44.602Z,98236.81
2022-10-28T06:41:47.343Z,98237.25
2022-10-28T06:43:49.996Z,98240.44
2022-10-28T06:45:55.450Z,98250.22
2022-10-28T06:48:00.803Z,98258.75
2022-10-28T06:50:03.460Z,98267.66
2022-10-28T06:52:06.074Z,98280.72
2022-10-28T06:54:08.851Z,98282.03
2022-10-28T06:56:12.839Z,98276.53
2022-10-28T06:58:15.488Z,98278.78
2022-10-28T07:00:18.992Z,98273.69
2022-10-28T07:02:21.941Z,98270.91
2022-10-28T07:04:24.662Z,98269.50
2022-10-28T07:06:27.322Z,98269.00
2022-10-28T07:08:30.547Z,98270.94
2022-10-28T07:10:33.364Z,98269.75
2022-10-28T07:12:37.359Z,98278.78
2022-10-28T07:14:40.024Z,98289.88
2022-10-28T07:16:43.056Z,98286.72
2022-10-28T07:18:45.693Z,98287.97
2022-10-28T07:20:48.903Z,98307.56
2022-10-28T07:22:56.887Z,98298.06
2022-10-28T07:25:00.266Z,98299.22
2022-10-28T07:27:02.908Z,98307.41
2022-10-28T07:29:07.239Z,98294.66
2022-10-28T07:33:17.829Z,98297.50
2022-10-28T07:35:20.801Z,98299.53
2022-10-28T07:37:23.552Z,98290.13
2022-10-28T07:39:26.254Z,98285.75
2022-10-28T07:41:29.042Z,98285.97
2022-10-28T07:43:32.254Z,98292.00
2022-10-28T07:45:36.901Z,98296.81
2022-10-28T07:47:39.736Z,98294.97
2022-10-28T07:49:42.376Z,98292.94
2022-10-28T07:51:45.013Z,98300.91
2022-10-28T07:53:47.640Z,98308.84
2022-10-28T07:55:56.383Z,98317.00
2022-10-28T07:57:59.633Z,98307.19
2022-10-28T08:00:02.516Z,98315.38
2022-10-28T08:02:06.868Z,98313.72
2022-10-28T08:04:09.540Z,98317.47
2022-10-28T08:06:16.137Z,98320.63
2022-10-28T08:08:18.803Z,98317.28
2022-10-28T08:10:22.315Z,98317.69
2022-10-28T08:12:25.134Z,98314.34
2022-10-28T08:14:27.809Z,98317.28
2022-10-28T08:16:31.180Z,98311.44
2022-10-28T08:18:35.735Z,98304.53
2022-10-28T08:20:38.379Z,98303.25
2022-10-28T08:22:41.004Z,98303.91
2022-10-28T08:24:43.659Z,98297.81
2022-10-28T08:26:46.303Z,98309.34
2022-10-28T08:28:49.020Z,98308.69
2022-10-28T08:31:04.256Z,98307.88
2022-10-28T08:33:11.148Z,98290.31
2022-10-28T08:35:15.357Z,98296.34
2022-10-28T08:37:18.039Z,98309.72
2022-10-28T08:39:20.699Z,98312.41
2022-10-28T08:41:32.385Z,98309.06
2022-10-28T08:43:57.098Z,98311.56
2022-10-28T08:46:03.062Z,98305.47
2022-10-28T08:48:15.726Z,98309.59
2022-10-28T08:50:23.399Z,98298.97
2022-10-28T08:52:31.760Z,98292.38
2022-10-28T08:54:38.832Z,98284.09
2022-10-28T08:56:45.945Z,98272.44
2022-10-28T08:58:52.060Z,98266.59
2022-10-28T09:00:57.068Z,98276.22
2022-10-28T09:03:15.069Z,98281.66
2022-10-28T09:05:23.272Z,98282.28
2022-10-28T09:07:26.494Z,98278.31
2022-10-28T09:09:29.283Z,98279.19
2022-10-28T09:12:03.767Z,98288.19
2022-10-28T09:14:24.521Z,98284.66
2022-10-28T09:16:38.657Z,98281.53
2022-10-28T09:18:53.102Z,98278.41
2022-10-28T09:21:02.572Z,98280.03
2022-10-28T09:23:14.940Z,98280.00
2022-10-28T09:25:24.544Z,98280.38
2022-10-28T09:27:45.828Z,98272.81
2022-10-28T09:29:54.149Z,98268.44
2022-10-28T09:32:04.970Z,98263.03
2022-10-28T09:34:19.163Z,98263.94
2022-10-28T09:36:28.695Z,98267.50
2022-10-28T09:38:33.837Z,98270.38
2022-10-28T09:40:42.164Z,98263.47
2022-10-28T09:42:52.496Z,98264.53
2022-10-28T09:44:59.379Z,98264.06
2022-10-28T09:47:05.596Z,98269.53
2022-10-28T09:49:16.475Z,98269.63
2022-10-28T09:51:32.201Z,98274.38
2022-10-28T09:53:45.595Z,98275.50
2022-10-28T09:55:48.345Z,98272.38
2022-10-28T09:57:51.383Z,98277.38
2022-10-28T09:59:54.916Z,98268.38
2022-10-28T10:01:57.864Z,98265.16
2022-10-28T10:04:00.868Z,98263.63
2022-10-28T10:06:13.022Z,98268.16
2022-10-28T10:08:20.159Z,98275.97
2022-10-28T10:10:25.718Z,98269.06
2022-10-28T10:12:30.024Z,98270.81
2022-10-28T10:14:40.169Z,98270.06
2022-10-28T10:16:48.250Z,98274.00
2022-10-28T10:18:56.138Z,98280.97
2022-10-28T10:21:00.040Z,98288.16
2022-10-28T10:23:02.723Z,98281.78
2022-10-28T10:25:25.196Z,98278.78
2022-10-28T10:27:30.160Z,98275.13
2022-10-28T10:29:33.290Z,98270.94
2022-10-28T10:31:36.015Z,98268.13
2022-10-28T10:33:41.043Z,98272.13
2022-10-28T10:35:43.744Z,98262.59
2022-10-28T10:37:49.099Z,98266.63
2022-10-28T10:40:06.909Z,98266.75
2022-10-28T10:42:18.354Z,98267.25
2022-10-28T10:44:32.513Z,98263.69
2022-10-28T10:46:35.233Z,98260.63
2022-10-28T10:48:37.933Z,98260.06
2022-10-28T10:50:41.777Z,98264.44
2022-10-28T10:52:50.123Z,98255.16
2022-10-28T10:55:03.893Z,98251.53
2022-10-28T10:57:16.853Z,98248.03
2022-10-28T10:59:25.057Z,98247.00
2022-10-28T11:01:30.197Z,98249.16
2022-10-28T11:03:36.868Z,98253.78
2022-10-28T11:05:55.151Z,98252.44
2022-10-28T11:08:05.028Z,98252.09
2022-10-28T11:10:20.723Z,98236.16
2022-10-28T11:12:28.889Z,98242.88
2022-10-28T11:14:34.043Z,98238.56
2022-10-28T11:16:49.006Z,98223.44
2022-10-28T11:18:53.461Z,98228.19
2022-10-28T11:21:05.318Z,98214.19
2022-10-28T11:23:23.757Z,98212.31
2022-10-28T11:25:37.950Z,98201.25
2022-10-28T11:27:57.458Z,98210.47
2022-10-28T11:30:05.470Z,98209.22
2022-10-28T11:32:25.026Z,98206.53
2022-10-28T11:34:42.999Z,98212.22
2022-10-28T11:36:55.666Z,98211.59
2022-10-28T11:39:07.524Z,98210.00
2022-10-28T11:41:20.699Z,98214.31
2022-10-28T11:43:31.501Z,98209.09
2022-10-28T11:45:41.306Z,98204.47
2022-10-28T11:48:02.650Z,98200.34
2022-10-28T11:50:25.051Z,98200.91
2022-10-28T11:52:45.474Z,98203.97
2022-10-28T11:56:18.269Z,98206.22
2022-10-28T11:58:58.603Z,98199.31
2022-10-28T12:01:16.692Z,98192.34
2022-10-28T12:03:45.925Z,98197.59
2022-10-28T12:05:55.981Z,98197.97
2022-10-28T12:08:12.460Z,98199.06
2022-10-28T12:10:32.905Z,98203.09
2022-10-28T12:12:48.652Z,98200.75
2022-10-28T12:15:04.775Z,98196.97
2022-10-28T12:17:16.767Z,98195.63
2022-10-28T12:19:23.558Z,98203.13
2022-10-28T12:21:32.336Z,98192.44
2022-10-28T12:23:36.579Z,98184.28
2022-10-28T12:25:43.031Z,98179.84
2022-10-28T12:27:50.438Z,98178.03
2022-10-28T12:29:57.226Z,98184.81
2022-10-28T12:32:03.945Z,98183.53
2022-10-28T12:34:13.393Z,98180.25
2022-10-28T12:36:22.735Z,98174.81
2022-10-28T12:38:31.366Z,98176.19
2022-10-28T12:40:41.596Z,98168.06
2022-10-28T12:42:48.869Z,98158.03
2022-10-28T12:44:55.605Z,98170.50
2022-10-28T12:47:09.593Z,98175.59
2022-10-28T12:49:29.089Z,98168.72
2022-10-28T12:51:37.541Z,98170.09
2022-10-28T12:53:45.242Z,98173.03
2022-10-28T12:55:52.312Z,98177.78
2022-10-28T12:58:02.900Z,98165.69
2022-10-28T13:00:16.443Z,98165.94
2022-10-28T13:02:26.848Z,98162.22
2022-10-28T13:04:29.955Z,98150.69
2022-10-28T13:06:55.951Z,98144.63
2022-10-28T13:09:20.517Z,98153.19
2022-10-28T13:11:53.569Z,98153.28
2022-10-28T13:14:03.058Z,98156.13
2022-10-28T13:16:33.960Z,98155.72
2022-10-28T13:19:21.248Z,98137.53
2022-10-28T13:21:33.328Z,98148.53
2022-10-28T13:23:41.823Z,98132.88
2022-10-28T13:26:00.340Z,98149.41
2022-10-28T13:28:03.951Z,98136.13
2022-10-28T13:30:10.208Z,98134.78
2022-10-28T13:32:34.052Z,98130.47
2022-10-28T13:34:42.302Z,98130.41
2022-10-28T13:36:47.358Z,98131.34
2022-10-28T13:38:53.646Z,98130.66
2022-10-28T13:41:13.188Z,98133.06
2022-10-28T13:43:20.663Z,98136.31
2022-10-28T13:45:51.452Z,98125.25
2022-10-28T13:48:47.937Z,98131.13
2022-10-28T13:50:51.937Z,98136.53
2022-10-28T13:53:45.863Z,98136.97
2022-10-28T13:55:49.424Z,98134.88
2022-10-28T13:57:59.751Z,98140.69
2022-10-28T14:00:04.043Z,98137.53
2022-10-28T14:03:20.534Z,98126.25
2022-10-28T14:05:28.063Z,98130.56
2022-10-28T14:07:32.877Z,98137.25
2022-10-28T14:09:37.270Z,98121.66
2022-10-28T14:11:40.267Z,98128.16
2022-10-28T14:13:50.539Z,98117.59
2022-10-28T14:16:15.605Z,98125.63
2022-10-28T14:20:59.091Z,98126.78
2022-10-28T14:23:22.223Z,98127.66
2022-10-28T14:26:02.054Z,98128.69
2022-10-28T14:28:24.952Z,98125.53
2022-10-28T14:30:27.638Z,98128.69
2022-10-28T14:32:57.320Z,98123.81
2022-10-28T14:35:03.530Z,98132.22
2022-10-28T14:37:27.485Z,98124.34
2022-10-28T14:39:41.572Z,98122.69
2022-10-28T14:42:00.098Z,98122.94
2022-10-28T14:44:18.208Z,98116.06
2022-10-28T14:46:39.670Z,98120.25
2022-10-28T14:48:49.013Z,98112.94
2022-10-28T14:50:56.292Z,98115.00
2022-10-28T14:53:02.149Z,98118.44
2022-10-28T14:55:08.493Z,98112.56
2022-10-28T14:57:12.926Z,98113.91
2022-10-28T14:59:25.701Z,98125.25
2022-10-28T15:01:29.355Z,98113.13
2022-10-28T15:03:33.149Z,98118.94
2022-10-28T15:05:35.855Z,98124.94
2022-10-28T15:07:38.897Z,98116.56
2022-10-28T15:09:43.368Z,98103.66
2022-10-28T15:11:48.949Z,98105.94
2022-10-28T15:13:54.736Z,98115.72
2022-10-28T15:15:59.471Z,98114.00
2022-10-28T15:18:22.902Z,98111.59
2022-10-28T15:20:27.942Z,98113.41
2022-10-28T15:22:33.231Z,98118.44
2022-10-28T15:24:36.024Z,98114.75
2022-10-28T15:26:38.860Z,98114.13
2022-10-28T15:28:43.103Z,98113.66
2022-10-28T15:30:47.138Z,98111.47
2022-10-28T15:32:50.702Z,98105.78
2022-10-28T15:34:53.588Z,98112.09
2022-10-28T15:39:08.677Z,98112.13
2022-10-28T15:41:49.158Z,98112.50
2022-10-28T15:43:56.537Z,98101.00
2022-10-28T15:46:10.701Z,98112.69
2022-10-28T15:48:15.055Z,98120.03
2022-10-28T15:50:32.206Z,98106.47
2022-10-28T15:52:40.829Z,98103.28
2022-10-28T15:54:44.716Z,98100.44
2022-10-28T15:56:56.141Z,98097.75
2022-10-28T15:59:07.189Z,98100.56
2022-10-28T16:01:29.199Z,98091.31
2022-10-28T16:03:43.042Z,98098.94
2022-10-28T16:05:47.202Z,98086.84
2022-10-28T16:07:49.956Z,98098.16
2022-10-28T16:09:52.997Z,98094.91
2022-10-28T16:12:01.614Z,98098.00
2022-10-28T16:14:19.186Z,98098.00
2022-10-28T16:16:26.786Z,98095.41
2022-10-28T16:18:32.741Z,98097.06
2022-10-28T16:20:35.458Z,98086.16
2022-10-28T16:22:39.928Z,98087.81
2022-10-28T16:24:42.879Z,98088.06
2022-10-28T16:26:45.623Z,98088.88
2022-10-28T16:28:48.284Z,98085.56
2022-10-28T16:30:56.058Z,98093.75
2022-10-28T16:33:00.156Z,98088.41
2022-10-28T16:35:02.851Z,98099.06
2022-10-28T16:37:19.327Z,98088.16
2022-10-28T16:39:22.024Z,98091.38
2022-10-28T16:41:25.657Z,98097.19
2022-10-28T16:43:30.507Z,98101.00
2022-10-28T16:45:33.173Z,98109.09
2022-10-28T16:47:35.861Z,98116.78
2022-10-28T16:49:40.181Z,98105.13
2022-10-28T16:51:42.778Z,98118.09
2022-10-28T16:53:49.570Z,98119.50
2022-10-28T16:55:54.157Z,98122.38
2022-10-28T16:57:57.196Z,98122.97
2022-10-28T17:00:00.037Z,98124.16
2022-10-28T17:02:03.254Z,98132.13
2022-10-28T17:04:06.344Z,98132.34
2022-10-28T17:06:11.450Z,98144.34
2022-10-28T17:08:14.550Z,98145.28
2022-10-28T17:10:18.207Z,98135.44
2022-10-28T17:12:23.024Z,98139.47
2022-10-28T17:14:25.651Z,98144.59
2022-10-28T17:16:28.266Z,98148.38
2022-10-28T17:18:30.946Z,98151.94
2022-10-28T17:20:34.469Z,98155.16
2022-10-28T17:22:40.210Z,98148.94
2022-10-28T17:24:42.893Z,98146.22
2022-10-28T17:26:47.224Z,98160.97
2022-10-28T17:28:52.954Z,98150.72
2022-10-28T17:31:02.768Z,98160.22
2022-10-28T17:33:05.505Z,98154.63
2022-10-28T17:35:08.721Z,98166.72
2022-10-28T17:37:11.596Z,98167.06
2022-10-28T17:39:19.582Z,98162.69
2022-10-28T17:41:24.651Z,98167.78
2022-10-28T17:43:27.426Z,98170.97
2022-10-28T17:45:30.063Z,98170.56
2022-10-28T17:47:33.714Z,98156.78
2022-10-28T17:49:36.475Z,98135.28
2022-10-28T17:51:39.656Z,98155.25
2022-10-28T17:53:42.292Z,98153.38
2022-10-28T17:55:46.340Z,98164.06
2022-10-28T17:57:49.030Z,98153.59
2022-10-28T17:59:51.678Z,98148.44
2022-10-28T18:01:54.656Z,98150.56
2022-10-28T18:03:57.588Z,98140.81
2022-10-28T18:06:03.444Z,98138.78
2022-10-28T18:08:06.072Z,98142.00
2022-10-28T18:10:09.906Z,98133.63
2022-10-28T18:12:13.992Z,98132.53
2022-10-28T18:14:17.029Z,98130.06
2022-10-28T18:16:21.543Z,98128.50
2022-10-28T18:18:26.682Z,98131.38
2022-10-28T18:20:29.280Z,98140.94
2022-10-28T18:22:31.982Z,98136.94
2022-10-28T18:24:34.648Z,98136.88
2022-10-28T18:26:38.740Z,98143.75
2022-10-28T18:28:44.122Z,98149.19
2022-10-28T18:30:46.784Z,98149.19
2022-10-28T18:32:49.511Z,98127.50
2022-10-28T18:34:52.287Z,98140.59
2022-10-28T18:36:54.987Z,98144.97
2022-10-28T18:38:58.398Z,98137.47
2022-10-28T18:41:01.229Z,98138.78
2022-10-28T18:43:03.885Z,98135.88
2022-10-28T18:45:09.147Z,98133.38
2022-10-28T18:47:11.792Z,98134.69
2022-10-28T18:49:14.542Z,98132.16
2022-10-28T18:51:17.442Z,98144.50
2022-10-28T18:53:21.125Z,98132.16
2022-10-28T18:55:24.969Z,98133.00
2022-10-28T18:57:27.681Z,98132.34
2022-10-28T18:59:30.426Z,98129.03
2022-10-28T19:01:34.879Z,98133.25
2022-10-28T19:03:38.044Z,98125.09
2022-10-28T19:05:40.668Z,98131.38
2022-10-28T19:07:43.323Z,98129.78
2022-10-28T19:09:45.938Z,98125.00
2022-10-28T19:11:48.554Z,98117.53
2022-10-28T19:13:51.201Z,98119.66
2022-10-28T19:15:54.447Z,98128.19
2022-10-28T19:17:58.592Z,98123.19
2022-10-28T19:20:01.253Z,98122.75
2022-10-28T19:22:03.903Z,98119.41
2022-10-28T19:24:07.023Z,98124.00
2022-10-28T19:26:11.102Z,98120.25
2022-10-28T19:28:13.733Z,98113.94
2022-10-28T19:30:16.382Z,98117.97
2022-10-28T19:32:19.147Z,98110.53
2022-10-28T19:34:24.100Z,98105.97
2022-10-28T19:36:29.112Z,98104.56
2022-10-28T19:38:33.414Z,98113.09
2022-10-28T19:40:36.077Z,98101.75
2022-10-28T19:42:39.619Z,98100.25
2022-10-28T19:44:42.277Z,98115.72
2022-10-28T19:46:44.883Z,98111.91
2022-10-28T19:48:49.972Z,98109.19
2022-10-28T19:50:53.982Z,98117.81
2022-10-28T19:52:56.768Z,98103.59
2022-10-28T19:54:59.452Z,98114.03
2022-10-28T19:57:02.204Z,98108.19
2022-10-28T19:59:06.777Z,98116.97
2022-10-28T20:01:10.451Z,98122.03
2022-10-28T20:03:13.133Z,98117.22
2022-10-28T20:05:15.985Z,98125.38
2022-10-28T20:07:20.137Z,98136.88
2022-10-28T20:09:27.888Z,98131.19
2022-10-28T20:11:33.361Z,98135.59
2022-10-28T20:13:37.428Z,98132.41
2022-10-28T20:15:40.116Z,98127.81
2022-10-28T20:17:42.807Z,98138.25
2022-10-28T20:19:45.476Z,98129.25
2022-10-28T20:21:48.530Z,98131.97
2022-10-28T20:23:54.635Z,98126.13
2022-10-28T20:25:57.632Z,98130.97
2022-10-28T20:28:00.278Z,98132.47
2022-10-28T20:30:02.961Z,98137.75
2022-10-28T20:32:05.751Z,98141.53
2022-10-28T20:34:09.495Z,98148.03
2022-10-28T20:36:23.612Z,98146.81
2022-10-28T20:38:27.477Z,98143.88
2022-10-28T20:40:31.454Z,98143.06
2022-10-28T20:42:34.161Z,98143.44
2022-10-28T20:44:36.850Z,98143.19
2022-10-28T20:46:39.862Z,98140.72
2022-10-28T20:48:42.525Z,98136.53
2022-10-28T20:50:50.702Z,98139.72
2022-10-28T20:52:53.593Z,98138.50
2022-10-28T20:54:56.628Z,98132.44
2022-10-28T20:57:00.628Z,98143.94
2022-10-28T20:59:03.350Z,98137.88
2022-10-28T21:01:08.279Z,98147.56
2022-10-28T21:03:11.502Z,98144.84
2022-10-28T21:05:14.301Z,98148.59
2022-10-28T21:07:16.960Z,98146.31
2022-10-28T21:09:19.616Z,98145.06
2022-10-28T21:11:23.646Z,98138.75
2022-10-28T21:13:27.772Z,98149.22
2022-10-28T21:15:30.454Z,98142.94
2022-10-28T21:17:33.088Z,98145.66
2022-10-28T21:19:35.720Z,98144.59
2022-10-28T21:21:38.345Z,98144.59
2022-10-28T21:23:41.196Z,98158.19
2022-10-28T21:25:43.843Z,98154.25
2022-10-28T21:27:46.506Z,98150.09
2022-10-28T21:29:50.711Z,98142.53
2022-10-28T21:31:53.371Z,98141.13
2022-10-28T21:33:56.099Z,98144.88
2022-10-28T21:36:00.164Z,98133.59
2022-10-28T21:38:02.791Z,98134.06
2022-10-28T21:40:06.495Z,98132.84
2022-10-28T21:42:09.195Z,98130.16
2022-10-28T21:44:12.216Z,98133.75
2022-10-28T21:46:16.758Z,98129.19
2022-10-28T21:48:20.050Z,98128.84
2022-10-28T21:50:23.269Z,98139.34
2022-10-28T21:52:25.929Z,98127.41
2022-10-28T21:54:28.575Z,98133.44
2022-10-28T21:56:31.249Z,98133.63
2022-10-28T21:58:36.044Z,98141.38
2022-10-28T22:00:38.814Z,98139.00
2022-10-28T22:02:42.992Z,98141.72
2022-10-28T22:04:45.736Z,98139.69
2022-10-28T22:08:56.629Z,98144.09
2022-10-28T22:11:01.048Z,98138.84
2022-10-28T22:13:03.825Z,98133.41
2022-10-28T22:15:07.569Z,98141.56
2022-10-28T22:17:11.045Z,98139.06
2022-10-28T22:19:16.276Z,98135.94
2022-10-28T22:21:21.164Z,98122.19
2022-10-28T22:23:23.826Z,98132.06
2022-10-28T22:25:26.514Z,98123.78
2022-10-28T22:27:29.261Z,98129.03
2022-10-28T22:29:31.926Z,98120.06
2022-10-28T22:31:35.069Z,98121.56
2022-10-28T22:33:38.326Z,98124.34
2022-10-28T22:35:42.388Z,98129.09
2022-10-28T22:37:45.001Z,98132.47
2022-10-28T22:39:47.658Z,98137.47
2022-10-28T22:41:50.325Z,98142.88
2022-10-28T22:43:54.953Z,98143.28
2022-10-28T22:45:57.933Z,98142.47
2022-10-28T22:48:00.584Z,98142.47
2022-10-28T22:50:03.326Z,98142.69
2022-10-28T22:52:07.409Z,98142.06
2022-10-28T22:54:10.054Z,98136.00
2022-10-28T22:56:16.632Z,98133.31
2022-10-28T22:58:19.292Z,98143.09
2022-10-28T23:00:21.963Z,98136.22
2022-10-28T23:02:24.748Z,98139.59
2022-10-28T23:04:27.665Z,98146.91
2022-10-28T23:06:30.448Z,98146.28
2022-10-28T23:08:34.925Z,98141.28
2022-10-28T23:10:37.592Z,98143.59
2022-10-28T23:12:40.245Z,98139.19
2022-10-28T23:14:42.873Z,98134.63
2022-10-28T23:16:45.510Z,98132.13
2022-10-28T23:18:48.952Z,98129.44
2022-10-28T23:20:51.560Z,98142.41
2022-10-28T23:22:57.229Z,98141.38
2022-10-28T23:25:01.195Z,98130.31
2022-10-28T23:27:03.829Z,98143.88
2022-10-28T23:29:06.619Z,98138.88
2022-10-28T23:31:13.193Z,98132.84
2022-10-28T23:33:15.885Z,98143.91
2022-10-28T23:35:18.642Z,98136.00
2022-10-28T23:37:21.237Z,98139.53
2022-10-28T23:39:24.125Z,98139.75
2022-10-28T23:41:28.127Z,98141.00
2022-10-28T23:43:31.915Z,98138.13
2022-10-28T23:45:34.568Z,98141.03
2022-10-28T23:47:37.225Z,98144.78
2022-10-28T23:49:39.899Z,98135.19
2022-10-28T23:51:42.520Z,98137.09
2022-10-28T23:53:45.122Z,98141.03
2022-10-28T23:55:49.471Z,98142.72
2022-10-28T23:57:57.773Z,98148.16
